Time;durP1;ratioP1;P1;durP2;ratioP2;P2;SDS_P1;SDS_P2;PMS_P1;PMS_P2;Temp;Humidity;BMP_temperature;BMP_pressure;BME280_temperature;BME280_humidity;BME280_pressure;Samples;Min_cycle;Max_cycle;Signal;HPM_P1;HPM_P2
2022/11/08 00:02:13;;;;;;;;;;;;;;;;;;;;;
2022/11/08 00:15:55;;;;;;;3.45;0.80;;;12.30;99.90;;;;;;4952935;28;20043;-90
2022/11/08 00:19:21;;;;;;;;;;;;;;;;;;;;;
2022/11/08 00:22:42;;;;;;;5.70;1.13;;;12.30;99.90;;;;;;4947529;28;20121;-89
2022/11/08 00:25:49;;;;;;;;;;;;;;;;;;;;;
2022/11/08 00:29:01;;;;;;;3.88;0.90;;;12.30;99.90;;;;;;4968668;28;20413;-89
2022/11/08 00:32:21;;;;;;;4.07;0.80;;;12.30;99.90;;;;;;4980482;28;20058;-90
2022/11/08 00:35:56;;;;;;;;;;;;;;;;;;;;;
2022/11/08 00:39:29;;;;;;;;;;;;;;;;;;;;;
2022/11/08 00:42:42;;;;;;;;;;;;;;;;;;;;;
2022/11/08 00:45:46;;;;;;;3.72;0.88;;;12.20;99.90;;;;;;4898385;29;20052;-90
2022/11/08 00:49:08;;;;;;;3.72;0.90;;;12.30;99.90;;;;;;4897242;29;21643;-92
2022/11/08 00:52:50;;;;;;;3.38;0.77;;;12.50;99.90;;;;;;4911601;29;20561;-89
2022/11/08 00:56:18;;;;;;;;;;;;;;;;;;;;;
2022/11/08 00:59:38;;;;;;;;;;;;;;;;;;;;;
2022/11/08 01:03:17;;;;;;;5.38;0.73;;;12.30;99.90;;;;;;4906456;29;20598;-90
2022/11/08 01:06:40;;;;;;;;;;;;;;;;;;;;;
2022/11/08 01:10:07;;;;;;;4.05;0.68;;;12.20;99.90;;;;;;4895344;29;20067;-89
2022/11/08 01:13:23;;;;;;;;;;;;;;;;;;;;;
2022/11/08 01:16:19;;;;;;;6.70;0.70;;;12.30;99.90;;;;;;4881823;29;20491;-89
2022/11/08 01:19:50;;;;;;;2.75;0.80;;;12.20;99.90;;;;;;4968730;28;20536;-91
2022/11/08 01:23:20;;;;;;;;;;;;;;;;;;;;;
2022/11/08 01:25:51;;;;;;;5.80;0.82;;;12.20;99.90;;;;;;4979331;28;20409;-89
2022/11/08 01:28:58;;;;;;;5.57;0.90;;;12.20;99.90;;;;;;4979476;28;20563;-91
2022/11/08 01:32:29;;;;;;;;;;;;;;;;;;;;;
2022/11/08 01:36:00;;;;;;;;;;;;;;;;;;;;;
2022/11/08 01:39:40;;;;;;;1.42;0.50;;;12.90;99.90;;;;;;4963689;28;20085;-89
2022/11/08 01:42:47;;;;;;;3.95;0.68;;;12.30;99.90;;;;;;4958700;28;20058;-89
2022/11/08 01:46:09;;;;;;;2.92;0.52;;;12.30;99.90;;;;;;4972148;28;20045;-89
2022/11/08 01:49:38;;;;;;;2.58;0.47;;;12.20;99.90;;;;;;4932277;29;20043;-89
2022/11/08 01:53:17;;;;;;;;;;;;;;;;;;;;;
2022/11/08 01:56:52;;;;;;;5.05;0.77;;;13.00;99.90;;;;;;4974362;28;20043;-88
2022/11/08 02:03:38;;;;;;;;;;;;;;;;;;;;;
2022/11/08 02:07:01;;;;;;;2.78;0.70;;;12.00;99.90;;;;;;4946429;28;20145;-89
2022/11/08 02:10:06;;;;;;;2.95;0.68;;;12.00;99.90;;;;;;4958239;29;20050;-91
2022/11/08 02:13:12;;;;;;;3.53;0.80;;;12.00;99.90;;;;;;4983268;28;20094;-89
2022/11/08 02:16:22;;;;;;;4.18;0.80;;;11.90;99.90;;;;;;5000743;28;20037;-90
2022/11/08 02:20:08;;;;;;;8.50;1.25;;;12.00;99.90;;;;;;4990763;28;20034;-89
2022/11/08 02:24:01;;;;;;;3.42;0.80;;;11.90;99.90;;;;;;4995008;28;20062;-90
2022/11/08 02:27:25;;;;;;;;;;;;;;;;;;;;;
2022/11/08 02:30:30;;;;;;;;;;;;;;;;;;;;;
2022/11/08 02:33:23;;;;;;;;;;;11.80;99.90;;;;;;4973755;28;20089;-92
2022/11/08 02:36:21;;;;;;;2.85;0.60;;;11.80;99.90;;;;;;4967933;28;19933;-90
2022/11/08 02:39:36;;;;;;;;;;;;;;;;;;;;;
2022/11/08 02:42:42;;;;;;;3.95;1.00;;;11.50;99.90;;;;;;4951985;28;20047;-90
2022/11/08 02:46:23;;;;;;;;;;;;;;;;;;;;;
2022/11/08 02:49:29;;;;;;;4.13;0.52;;;11.70;99.90;;;;;;4977557;28;20289;-90
2022/11/08 02:52:58;;;;;;;;;;;;;;;;;;;;;
2022/11/08 02:56:18;;;;;;;1.02;0.60;;;11.60;99.90;;;;;;4965264;28;20054;-90
2022/11/08 02:59:42;;;;;;;;;;;;;;;;;;;;;
2022/11/08 03:03:14;;;;;;;3.88;0.70;;;11.40;99.90;;;;;;4963702;28;20053;-89
2022/11/08 03:06:39;;;;;;;6.68;0.77;;;11.20;99.90;;;;;;4971610;28;20047;-89
2022/11/08 03:09:37;;;;;;;2.50;0.50;;;11.40;99.90;;;;;;4978538;28;20046;-90
2022/11/08 03:16:34;;;;;;;;;;;;;;;;;;;;;
2022/11/08 03:19:37;;;;;;;3.70;0.55;;;11.40;99.90;;;;;;4953254;28;20107;-90
2022/11/08 03:26:48;;;;;;;5.55;0.80;;;11.90;99.90;;;;;;4926141;29;20106;-90
2022/11/08 03:30:14;;;;;;;;;;;;;;;;;;;;;
2022/11/08 03:32:49;;;;;;;2.15;0.60;;;11.10;99.90;;;;;;4906719;29;20120;-90
2022/11/08 03:35:38;;;;;;;;;;;;;;;;;;;;;
2022/11/08 03:39:01;;;;;;;;;;;;;;;;;;;;;
2022/11/08 03:42:17;;;;;;;2.85;0.60;;;12.00;99.90;;;;;;4923377;29;20134;-90
2022/11/08 03:45:58;;;;;;;;;;;;;;;;;;;;;
2022/11/08 03:48:59;;;;;;;4.28;0.70;;;11.10;99.90;;;;;;4920607;29;20591;-89
2022/11/08 03:59:03;;;;;;;2.28;0.70;;;11.00;99.90;;;;;;4925651;29;20562;-90
2022/11/08 04:02:28;;;;;;;;;;;;;;;;;;;;;
2022/11/08 04:05:24;;;;;;;1.55;0.60;;;11.00;99.90;;;;;;4932246;29;20060;-90
2022/11/08 04:08:13;;;;;;;2.28;0.80;;;10.90;99.90;;;;;;4902335;29;20043;-90
2022/11/08 04:22:12;;;;;;;2.50;0.60;;;10.70;99.90;;;;;;4913225;29;20086;-88
2022/11/08 04:25:36;;;;;;;3.42;0.60;;;10.80;99.90;;;;;;4896542;29;20057;-89
2022/11/08 04:28:47;;;;;;;2.28;0.68;;;10.70;99.90;;;;;;4911781;29;20069;-89
2022/11/08 04:32:20;;;;;;;;;;;;;;;;;;;;;
2022/11/08 04:35:20;;;;;;;3.55;0.70;;;10.60;99.90;;;;;;4909601;29;20055;-89
2022/11/08 04:38:20;;;;;;;3.00;0.70;;;11.40;99.90;;;;;;4909341;29;20520;-88
2022/11/08 04:41:53;;;;;;;;;;;;;;;;;;;;;
2022/11/08 04:45:24;;;;;;;3.00;0.60;;;10.60;99.90;;;;;;4932050;29;20055;-89
2022/11/08 04:48:43;;;;;;;3.00;0.60;;;10.60;99.90;;;;;;4933589;29;20086;-89
2022/11/08 04:52:06;;;;;;;;;;;;;;;;;;;;;
2022/11/08 04:54:59;;;;;;;1.73;0.50;;;9.80;99.90;;;;;;4929606;29;20047;-88
2022/11/08 04:57:49;;;;;;;1.90;0.50;;;10.50;99.90;;;;;;4946148;28;20524;-90
2022/11/08 05:01:10;;;;;;;;;;;;;;;;;;;;;
2022/11/08 05:04:35;;;;;;;4.10;0.90;;;10.50;99.90;;;;;;4973644;28;20051;-89
2022/11/08 05:07:30;;;;;;;2.88;0.55;;;10.50;99.90;;;;;;4968136;28;20068;-89
2022/11/08 05:10:25;;;;;;;1.65;0.70;;;10.50;99.90;;;;;;4955751;28;20063;-91
2022/11/08 05:14:09;;;;;;;;;;;;;;;;;;;;;
2022/11/08 05:17:41;;;;;;;2.00;0.57;;;10.50;99.90;;;;;;4964198;28;20130;-89
2022/11/08 05:24:29;;;;;;;1.27;0.47;;;10.50;99.90;;;;;;4971213;28;20050;-88
2022/11/08 05:28:16;;;;;;;;;;;;;;;;;;;;;
2022/11/08 05:31:46;;;;;;;;;;;;;;;;;;;;;
2022/11/08 05:34:46;;;;;;;2.90;0.55;;;10.40;99.90;;;;;;4955816;28;20046;-90
2022/11/08 05:38:12;;;;;;;1.52;0.50;;;10.40;99.90;;;;;;4962728;28;20054;-89
2022/11/08 05:41:40;;;;;;;;;;;;;;;;;;;;;
2022/11/08 05:44:59;;;;;;;;;;;;;;;;;;;;;
2022/11/08 05:48:02;;;;;;;;;;;;;;;;;;;;;
2022/11/08 05:51:10;;;;;;;3.47;0.63;;;10.30;99.90;;;;;;4965605;28;20066;-90
2022/11/08 05:54:12;;;;;;;1.83;0.60;;;10.20;99.90;;;;;;4967523;28;20128;-89
2022/11/08 05:57:32;;;;;;;;;;;;;;;;;;;;;
2022/11/08 06:01:03;;;;;;;;;;;;;;;;;;;;;
2022/11/08 06:04:17;;;;;;;1.73;0.50;;;10.20;99.90;;;;;;4972622;28;20051;-89
2022/11/08 06:08:00;;;;;;;;;;;;;;;;;;;;;
2022/11/08 06:11:36;;;;;;;5.68;0.70;;;10.90;99.90;;;;;;4970138;28;20046;-90
2022/11/08 06:15:04;;;;;;;0.82;0.32;;;10.10;99.90;;;;;;4958030;28;20150;-89
2022/11/08 06:18:32;;;;;;;2.50;0.50;;;10.10;99.90;;;;;;4969477;28;20051;-90
2022/11/08 06:21:55;;;;;;;6.00;0.40;;;10.10;99.90;;;;;;4974884;28;20417;-89
2022/11/08 06:24:27;;;;;;;0.60;0.30;;;10.90;99.90;;;;;;4927932;28;20054;-89
2022/11/08 06:27:48;;;;;;;;;;;;;;;;;;;;;
2022/11/08 06:31:10;;;;;;;;;;;;;;;;;;;;;
2022/11/08 06:34:04;;;;;;;1.20;0.35;;;10.30;99.90;;;;;;4969068;28;20055;-92
2022/11/08 06:37:04;;;;;;;0.80;0.43;;;9.90;99.90;;;;;;4975467;28;20086;-92
2022/11/08 06:40:02;;;;;;;;;;;;;;;;;;;;;
2022/11/08 06:43:05;;;;;;;2.17;0.40;;;9.90;99.90;;;;;;4966644;28;20097;-92
2022/11/08 06:46:17;;;;;;;2.55;0.40;;;9.90;99.90;;;;;;4964104;28;20051;-91
2022/11/08 06:49:08;;;;;;;1.25;0.52;;;9.80;99.90;;;;;;4963115;28;20051;-92
2022/11/08 06:52:12;;;;;;;4.70;0.60;;;9.90;99.90;;;;;;4980829;28;20123;-91
2022/11/08 06:55:11;;;;;;;1.38;0.40;;;9.80;99.90;;;;;;4945817;28;20118;-90
2022/11/08 06:58:13;;;;;;;3.35;0.63;;;9.90;99.90;;;;;;4964726;28;20055;-90
2022/11/08 07:01:12;;;;;;;0.50;0.20;;;9.80;99.90;;;;;;4965372;28;20406;-91
2022/11/08 07:04:14;;;;;;;1.85;0.55;;;9.90;99.90;;;;;;4968871;28;20039;-91
2022/11/08 07:07:14;;;;;;;0.38;0.35;;;9.80;99.90;;;;;;4962377;28;20046;-92
2022/11/08 07:09:50;;;;;;;0.57;0.40;;;9.80;99.90;;;;;;4958089;28;20451;-90
2022/11/08 07:12:33;;;;;;;1.98;0.40;;;9.80;99.90;;;;;;4967960;28;20055;-90
2022/11/08 07:15:54;;;;;;;;;;;;;;;;;;;;;
2022/11/08 07:30:47;;;;;;;1.67;0.60;;;10.80;99.90;;;;;;4889567;29;20442;-89
2022/11/08 07:47:58;;;;;;;6.30;1.08;;;10.10;99.90;;;;;;5075891;22;28600114;-90
2022/11/08 07:51:19;;;;;;;3.50;0.70;;;10.70;99.90;;;;;;6222513;22;20119;-94
2022/11/08 08:17:23;;;;;;;1.30;0.70;;;10.60;99.90;;;;;;6280960;22;20032;-92
2022/11/08 09:12:00;;;;;;;1.38;0.60;;;11.70;99.90;;;;;;6096075;23;20085;-88
2022/11/08 09:23:07;;;;;;;;;;;;;;;;;;;;;
2022/11/08 09:31:03;;;;;;;;;;;;;;;;;;;;;
2022/11/08 09:38:07;;;;;;;2.53;0.75;;;12.50;99.90;;;;;;5011885;28;20141;-87
2022/11/08 09:50:56;;;;;;;;;;;;;;;;;;;;;
2022/11/08 11:43:16;;;;;;;2.47;0.98;;;14.00;99.90;;;;;;4793343;24;20091;-89
2022/11/08 11:46:28;;;;;;;0.93;0.60;;;14.00;99.90;;;;;;4708877;30;20538;-89
2022/11/08 11:49:41;;;;;;;;;;;;;;;;;;;;;
2022/11/08 11:52:37;;;;;;;2.35;0.60;;;14.30;99.90;;;;;;4685387;30;20056;-88
2022/11/08 11:56:14;;;;;;;;;;;;;;;;;;;;;
2022/11/08 11:59:58;;;;;;;2.72;0.60;;;14.30;99.90;;;;;;4744367;30;20057;-89
2022/11/08 12:03:08;;;;;;;1.90;0.50;;;14.30;99.90;;;;;;4749447;30;20116;-90
2022/11/08 12:06:14;;;;;;;1.83;0.63;;;14.40;99.90;;;;;;4728049;30;20074;-90
2022/11/08 12:09:32;;;;;;;2.90;0.50;;;14.40;99.90;;;;;;4748706;30;20052;-89
2022/11/08 12:12:58;;;;;;;2.47;0.70;;;14.50;99.90;;;;;;4729732;30;20423;-91
2022/11/08 12:16:30;;;;;;;3.22;0.75;;;14.60;99.90;;;;;;4735280;30;20059;-87
2022/11/08 12:19:33;;;;;;;1.15;0.50;;;14.70;99.90;;;;;;4733676;30;20126;-90
2022/11/08 12:23:13;;;;;;;1.17;0.73;;;14.60;99.90;;;;;;4752103;30;20117;-90
2022/11/08 12:26:32;;;;;;;1.10;0.30;;;14.70;99.90;;;;;;4729633;30;20541;-91
2022/11/08 12:29:46;;;;;;;3.28;0.50;;;14.80;99.90;;;;;;4717122;30;20524;-90
2022/11/08 12:33:28;;;;;;;;;;;;;;;;;;;;;
2022/11/08 12:40:49;;;;;;;2.30;0.60;;;14.90;99.90;;;;;;4723357;30;20055;-89
2022/11/08 13:07:43;;;;;;;4.38;0.60;;;14.80;99.90;;;;;;4769405;24;20056;-93
2022/11/08 13:26:58;;;;;;;1.88;0.60;;;14.90;99.90;;;;;;4366883;24;20063;-91
2022/11/08 13:30:32;;;;;;;3.22;0.60;;;15.10;99.90;;;;;;4744638;30;20487;-92
2022/11/08 13:33:48;;;;;;;1.88;0.50;;;15.00;99.90;;;;;;4732704;30;20113;-91
2022/11/08 14:55:21;;;;;;;1.55;0.60;;;13.90;99.90;;;;;;4747536;24;20057;-91
2022/11/08 15:28:11;;;;;;;2.22;0.50;;;13.50;99.90;;;;;;5089867;24;20523;-88
2022/11/08 15:30:56;;;;;;;2.83;0.50;;;13.40;99.90;;;;;;4617674;31;20047;-89
2022/11/08 15:33:40;;;;;;;2.50;0.50;;;13.40;99.90;;;;;;4637591;30;20044;-89
2022/11/08 15:36:29;;;;;;;1.80;0.95;;;13.40;99.90;;;;;;4619667;30;20315;-90
2022/11/08 15:39:00;;;;;;;2.53;0.70;;;13.50;99.90;;;;;;4632164;30;20055;-89
2022/11/08 15:41:34;;;;;;;6.60;0.75;;;13.50;99.90;;;;;;4624517;30;20481;-87
2022/11/08 15:44:13;;;;;;;1.15;0.60;;;13.40;99.90;;;;;;4631278;30;20051;-88
2022/11/08 15:47:00;;;;;;;3.92;0.60;;;13.40;99.90;;;;;;4631290;30;20083;-90
2022/11/08 15:49:28;;;;;;;3.20;0.82;;;13.40;99.90;;;;;;4620192;30;20076;-87
2022/11/08 15:51:57;;;;;;;1.60;0.60;;;13.40;99.90;;;;;;4623895;31;20095;-92
2022/11/08 15:54:25;;;;;;;3.90;0.63;;;13.40;99.90;;;;;;4619524;30;20067;-91
2022/11/08 15:56:55;;;;;;;2.35;0.50;;;13.40;99.90;;;;;;4649562;30;20545;-91
2022/11/08 15:59:36;;;;;;;1.13;0.50;;;13.30;99.90;;;;;;4645908;30;20157;-93
2022/11/08 16:03:00;;;;;;;2.00;0.60;;;13.30;99.90;;;;;;4642147;30;20070;-92
2022/11/08 16:06:17;;;;;;;;;;;;;;;;;;;;;
2022/11/08 16:09:43;;;;;;;1.30;0.60;;;13.20;99.90;;;;;;4650295;30;20137;-94
2022/11/08 16:12:45;;;;;;;;;;;;;;;;;;;;;
2022/11/08 16:15:54;;;;;;;;;;;;;;;;;;;;;
2022/11/08 16:19:10;;;;;;;5.32;0.60;;;13.40;99.90;;;;;;4613792;31;20066;-92
2022/11/08 16:22:06;;;;;;;;;;;;;;;;;;;;;
2022/11/08 16:29:31;;;;;;;;;;;;;;;;;;;;;
2022/11/08 16:32:30;;;;;;;2.67;0.70;;;13.10;99.90;;;;;;4747564;24;20063;-91
2022/11/08 16:35:59;;;;;;;2.55;0.68;;;13.20;99.90;;;;;;4753052;30;20040;-90
2022/11/08 16:39:32;;;;;;;;;;;;;;;;;;;;;
2022/11/08 16:42:47;;;;;;;4.95;0.88;;;13.10;99.90;;;;;;4765060;30;20052;-89
2022/11/08 16:46:38;;;;;;;;;;;;;;;;;;;;;
2022/11/08 16:49:25;;;;;;;3.63;0.60;;;13.10;99.90;;;;;;4766956;30;20052;-87
2022/11/08 16:51:54;;;;;;;1.35;0.63;;;13.10;99.90;;;;;;4762467;30;20130;-88
2022/11/08 16:55:11;;;;;;;;;;;;;;;;;;;;;
2022/11/08 16:58:30;;;;;;;;;;;;;;;;;;;;;
2022/11/08 17:33:08;;;;;;;2.38;0.63;;;12.60;99.90;;;;;;4730861;30;20466;-88
2022/11/08 17:36:39;;;;;;;3.95;0.50;;;12.90;99.90;;;;;;4820183;24;20165;-91
2022/11/08 17:40:42;;;;;;;1.88;0.77;;;12.70;99.90;;;;;;4721445;30;20080;-88
2022/11/08 17:44:18;;;;;;;1.98;0.70;;;12.70;99.90;;;;;;4719562;30;20090;-89
2022/11/08 17:47:46;;;;;;;;;;;;;;;;;;;;;
2022/11/08 17:51:32;;;;;;;3.78;0.80;;;13.30;99.90;;;;;;4717194;30;20407;-89
2022/11/08 18:01:30;;;;;;;2.28;0.55;;;12.60;99.90;;;;;;4646578;30;20103;-88
2022/11/08 18:08:38;;;;;;;;;;;;;;;;;;;;;
2022/11/08 18:15:51;;;;;;;;;;;;;;;;;;;;;
2022/11/08 18:22:41;;;;;;;2.95;0.60;;;12.40;99.90;;;;;;4657751;30;20053;-89
2022/11/08 18:25:54;;;;;;;2.30;0.80;;;12.40;99.90;;;;;;4656848;30;20063;-87
2022/11/08 18:29:20;;;;;;;2.10;0.52;;;13.30;99.90;;;;;;4660760;30;20137;-88
2022/11/08 18:36:51;;;;;;;;;;;;;;;;;;;;;
2022/11/08 18:43:05;;;;;;;0.95;0.60;;;12.50;99.90;;;;;;4799827;24;20056;-92
2022/11/08 19:52:28;;;;;;;2.83;0.85;;;12.10;99.90;;;;;;4723334;30;20075;-89
2022/11/08 19:56:09;;;;;;;4.75;0.80;;;12.60;99.90;;;;;;4726608;30;20059;-90
2022/11/08 20:02:04;;;;;;;3.08;0.70;;;12.60;99.90;;;;;;4765635;30;20062;-91
2022/11/08 20:09:14;;;;;;;1.40;0.55;;;12.50;99.90;;;;;;4766213;30;20075;-89
2022/11/08 20:12:06;;;;;;;5.55;0.95;;;12.60;99.90;;;;;;4755198;30;20483;-87
2022/11/08 20:15:23;;;;;;;4.75;0.85;;;12.40;99.90;;;;;;4747525;30;20505;-90
2022/11/08 20:17:56;;;;;;;1.80;0.60;;;12.70;99.90;;;;;;4747156;30;20138;-89
2022/11/08 20:21:03;;;;;;;;;;;;;;;;;;;;;
2022/11/08 20:27:13;;;;;;;4.15;0.70;;;12.60;99.90;;;;;;4657871;30;19935;-90
2022/11/08 20:29:43;;;;;;;2.10;0.57;;;12.40;99.90;;;;;;4641914;30;20059;-91
2022/11/08 20:32:14;;;;;;;3.97;0.60;;;12.50;99.90;;;;;;4649879;30;20195;-91
2022/11/08 20:38:57;;;;;;;;;;;;;;;;;;;;;
2022/11/08 20:41:47;;;;;;;1.45;0.60;;;12.60;99.90;;;;;;4618404;30;20064;-90
2022/11/08 20:44:21;;;;;;;3.88;0.82;;;13.00;99.90;;;;;;4621873;31;20058;-89
2022/11/08 20:46:50;;;;;;;2.63;0.98;;;12.60;99.90;;;;;;4603494;31;20188;-90
2022/11/08 20:49:20;;;;;;;2.25;0.75;;;12.60;99.90;;;;;;4622532;30;20086;-90
2022/11/08 20:51:48;;;;;;;3.10;0.65;;;12.60;99.90;;;;;;4612171;30;20140;-91
2022/11/08 20:58:28;;;;;;;2.50;0.82;;;12.60;99.90;;;;;;4591380;31;20064;-88
2022/11/08 21:02:00;;;;;;;;;;;;;;;;;;;;;
2022/11/08 21:05:24;;;;;;;3.90;0.77;;;12.50;99.90;;;;;;4590015;31;20376;-88
2022/11/08 21:08:27;;;;;;;2.53;0.50;;;12.50;99.90;;;;;;4588861;31;20067;-88
2022/11/08 21:11:25;;;;;;;4.07;0.80;;;12.50;99.90;;;;;;4601045;31;20129;-89
2022/11/08 21:14:27;;;;;;;2.45;0.60;;;12.50;99.90;;;;;;4572791;31;20550;-88
2022/11/08 21:17:10;;;;;;;4.88;0.77;;;12.50;99.90;;;;;;4589041;31;20498;-88
2022/11/08 21:23:30;;;;;;;2.05;0.52;;;12.60;99.90;;;;;;4666374;30;20138;-89
2022/11/08 21:26:35;;;;;;;5.43;1.15;;;12.70;99.90;;;;;;4665980;30;20058;-89
2022/11/08 21:29:56;;;;;;;2.08;0.70;;;12.70;99.90;;;;;;4662096;30;20512;-88
2022/11/08 21:33:18;;;;;;;1.48;0.47;;;12.80;99.90;;;;;;4689159;30;20060;-87
2022/11/08 21:36:59;;;;;;;4.47;1.15;;;12.80;99.90;;;;;;4751454;30;20052;-88
2022/11/08 21:40:18;;;;;;;2.05;0.52;;;12.90;99.90;;;;;;4687249;30;20069;-88
2022/11/08 21:43:40;;;;;;;0.68;0.40;;;12.50;99.90;;;;;;4672571;30;20070;-89
2022/11/08 21:46:43;;;;;;;0.57;0.25;;;12.50;99.90;;;;;;4692752;30;20054;-89
2022/11/08 21:49:53;;;;;;;;;;;;;;;;;;;;;
2022/11/08 21:53:12;;;;;;;;;;;;;;;;;;;;;
2022/11/08 21:56:46;;;;;;;0.63;0.10;;;12.10;99.90;;;;;;4687765;30;20061;-89
2022/11/08 22:04:22;;;;;;;;;;;;;;;;;;;;;
2022/11/08 22:08:02;;;;;;;;;;;;;;;;;;;;;
2022/11/08 22:11:44;;;;;;;0.20;0.20;;;11.60;99.90;;;;;;4646009;30;20466;-88
2022/11/08 22:15:03;;;;;;;;;;;;;;;;;;;;;
2022/11/08 22:18:01;;;;;;;0.38;0.20;;;11.50;99.90;;;;;;4715179;30;20076;-88
2022/11/08 22:24:57;;;;;;;2.15;0.60;;;11.50;99.90;;;;;;4714753;30;20056;-90
2022/11/08 22:28:26;;;;;;;;;;;;;;;;;;;;;
2022/11/08 22:31:26;;;;;;;4.15;0.50;;;11.70;99.90;;;;;;4699937;30;20065;-87
2022/11/08 22:34:46;;;;;;;;;;;;;;;;;;;;;
2022/11/08 22:40:47;;;;;;;2.45;0.30;;;11.90;99.90;;;;;;4736992;30;20138;-90
2022/11/08 22:43:32;;;;;;;;;;;;;;;;;;;;;
2022/11/08 22:46:36;;;;;;;2.22;0.47;;;12.00;99.90;;;;;;4770838;30;20091;-91
2022/11/08 22:53:07;;;;;;;;;;;12.00;99.90;;;;;;4700652;30;20069;-89
2022/11/08 22:55:56;;;;;;;0.98;0.30;;;12.00;99.90;;;;;;4691770;30;19934;-90
2022/11/08 22:58:55;;;;;;;1.42;0.30;;;12.00;99.90;;;;;;4671724;30;20062;-90
2022/11/08 23:38:31;;;;;;;;;;;;;;;;;;;;;
2022/11/08 23:52:59;;;;;;;2.05;0.60;;;11.60;99.90;;;;;;4528079;31;20057;-90
2022/11/08 23:56:28;;;;;;;;;;;;;;;;;;;;;
